sensor_id;sensor_type;location;lat;lon;timestamp;P1;durP1;ratioP1;P2;durP2;ratioP2
25333;SDS011;24559;53.590;9.764;2023-08-06T00:00:44;3.00;;;2.42;;
25333;SDS011;24559;53.590;9.764;2023-08-06T00:03:10;2.53;;;2.33;;
25333;SDS011;24559;53.590;9.764;2023-08-06T00:05:36;2.80;;;2.40;;
25333;SDS011;24559;53.590;9.764;2023-08-06T00:08:02;2.58;;;2.40;;
25333;SDS011;24559;53.590;9.764;2023-08-06T00:10:28;2.42;;;2.33;;
25333;SDS011;24559;53.590;9.764;2023-08-06T00:12:55;2.33;;;2.13;;
25333;SDS011;24559;53.590;9.764;2023-08-06T00:15:21;4.70;;;3.22;;
25333;SDS011;24559;53.590;9.764;2023-08-06T00:17:48;2.88;;;2.67;;
25333;SDS011;24559;53.590;9.764;2023-08-06T00:20:14;2.92;;;2.72;;
25333;SDS011;24559;53.590;9.764;2023-08-06T00:22:40;2.72;;;2.63;;
25333;SDS011;24559;53.590;9.764;2023-08-06T00:25:06;3.28;;;2.92;;
25333;SDS011;24559;53.590;9.764;2023-08-06T00:27:33;3.28;;;3.08;;
25333;SDS011;24559;53.590;9.764;2023-08-06T00:29:59;3.70;;;3.40;;
25333;SDS011;24559;53.590;9.764;2023-08-06T00:32:25;3.75;;;3.55;;
25333;SDS011;24559;53.590;9.764;2023-08-06T00:34:51;3.40;;;3.20;;
25333;SDS011;24559;53.590;9.764;2023-08-06T00:37:18;4.22;;;2.80;;
25333;SDS011;24559;53.590;9.764;2023-08-06T00:39:44;4.07;;;3.63;;
25333;SDS011;24559;53.590;9.764;2023-08-06T00:42:11;3.70;;;3.47;;
25333;SDS011;24559;53.590;9.764;2023-08-06T00:44:37;3.63;;;3.42;;
25333;SDS011;24559;53.590;9.764;2023-08-06T00:47:04;3.10;;;2.90;;
25333;SDS011;24559;53.590;9.764;2023-08-06T00:49:31;3.40;;;3.17;;
25333;SDS011;24559;53.590;9.764;2023-08-06T00:51:57;3.33;;;3.03;;
25333;SDS011;24559;53.590;9.764;2023-08-06T00:54:24;3.40;;;3.20;;
25333;SDS011;24559;53.590;9.764;2023-08-06T00:56:50;3.90;;;3.70;;
25333;SDS011;24559;53.590;9.764;2023-08-06T00:59:17;3.15;;;3.05;;
25333;SDS011;24559;53.590;9.764;2023-08-06T01:01:43;3.10;;;2.90;;
25333;SDS011;24559;53.590;9.764;2023-08-06T01:04:10;3.75;;;3.40;;
25333;SDS011;24559;53.590;9.764;2023-08-06T01:09:12;3.72;;;3.45;;
25333;SDS011;24559;53.590;9.764;2023-08-06T01:11:47;2.90;;;2.80;;
25333;SDS011;24559;53.590;9.764;2023-08-06T01:14:28;3.28;;;3.03;;
25333;SDS011;24559;53.590;9.764;2023-08-06T01:16:54;3.38;;;3.17;;
25333;SDS011;24559;53.590;9.764;2023-08-06T01:19:21;3.35;;;3.15;;
25333;SDS011;24559;53.590;9.764;2023-08-06T01:21:47;4.20;;;3.90;;
25333;SDS011;24559;53.590;9.764;2023-08-06T01:24:16;6.28;;;3.47;;
25333;SDS011;24559;53.590;9.764;2023-08-06T01:26:44;3.13;;;3.03;;
25333;SDS011;24559;53.590;9.764;2023-08-06T01:31:56;3.85;;;3.60;;
25333;SDS011;24559;53.590;9.764;2023-08-06T01:34:24;4.95;;;4.28;;
25333;SDS011;24559;53.590;9.764;2023-08-06T01:36:50;3.85;;;3.65;;
25333;SDS011;24559;53.590;9.764;2023-08-06T01:39:16;4.50;;;4.20;;
25333;SDS011;24559;53.590;9.764;2023-08-06T01:41:46;4.63;;;4.32;;
25333;SDS011;24559;53.590;9.764;2023-08-06T01:44:12;4.03;;;3.72;;
25333;SDS011;24559;53.590;9.764;2023-08-06T01:46:42;5.25;;;4.82;;
25333;SDS011;24559;53.590;9.764;2023-08-06T01:49:08;4.47;;;4.07;;
25333;SDS011;24559;53.590;9.764;2023-08-06T01:51:35;6.07;;;5.40;;
25333;SDS011;24559;53.590;9.764;2023-08-06T01:54:01;4.75;;;4.45;;
25333;SDS011;24559;53.590;9.764;2023-08-06T01:56:27;6.07;;;5.47;;
25333;SDS011;24559;53.590;9.764;2023-08-06T01:58:53;4.40;;;4.10;;
25333;SDS011;24559;53.590;9.764;2023-08-06T02:01:19;5.20;;;4.68;;
25333;SDS011;24559;53.590;9.764;2023-08-06T02:03:45;6.65;;;6.05;;
25333;SDS011;24559;53.590;9.764;2023-08-06T02:06:12;4.80;;;4.47;;
25333;SDS011;24559;53.590;9.764;2023-08-06T02:08:38;3.80;;;3.50;;
25333;SDS011;24559;53.590;9.764;2023-08-06T02:11:04;5.75;;;5.25;;
25333;SDS011;24559;53.590;9.764;2023-08-06T02:13:31;5.00;;;4.68;;
25333;SDS011;24559;53.590;9.764;2023-08-06T02:15:57;5.25;;;4.75;;
25333;SDS011;24559;53.590;9.764;2023-08-06T02:18:24;4.72;;;4.43;;
25333;SDS011;24559;53.590;9.764;2023-08-06T02:20:57;5.80;;;5.30;;
25333;SDS011;24559;53.590;9.764;2023-08-06T02:23:23;6.18;;;5.68;;
25333;SDS011;24559;53.590;9.764;2023-08-06T02:25:56;7.13;;;6.43;;
25333;SDS011;24559;53.590;9.764;2023-08-06T02:28:22;9.00;;;5.32;;
25333;SDS011;24559;53.590;9.764;2023-08-06T02:30:49;5.95;;;5.55;;
25333;SDS011;24559;53.590;9.764;2023-08-06T02:33:15;5.32;;;4.85;;
25333;SDS011;24559;53.590;9.764;2023-08-06T02:35:42;5.13;;;4.82;;
25333;SDS011;24559;53.590;9.764;2023-08-06T02:38:08;5.47;;;5.18;;
25333;SDS011;24559;53.590;9.764;2023-08-06T02:40:34;7.82;;;6.38;;
25333;SDS011;24559;53.590;9.764;2023-08-06T02:43:00;6.15;;;5.10;;
25333;SDS011;24559;53.590;9.764;2023-08-06T02:45:26;5.00;;;4.57;;
25333;SDS011;24559;53.590;9.764;2023-08-06T02:47:52;5.93;;;5.43;;
25333;SDS011;24559;53.590;9.764;2023-08-06T02:50:19;5.18;;;4.80;;
25333;SDS011;24559;53.590;9.764;2023-08-06T02:52:45;7.15;;;5.45;;
25333;SDS011;24559;53.590;9.764;2023-08-06T02:55:11;9.27;;;7.70;;
25333;SDS011;24559;53.590;9.764;2023-08-06T02:57:42;6.82;;;6.13;;
25333;SDS011;24559;53.590;9.764;2023-08-06T03:00:08;6.60;;;6.00;;
25333;SDS011;24559;53.590;9.764;2023-08-06T03:02:37;5.03;;;4.68;;
25333;SDS011;24559;53.590;9.764;2023-08-06T03:05:23;6.82;;;5.70;;
25333;SDS011;24559;53.590;9.764;2023-08-06T03:07:49;6.75;;;6.13;;
25333;SDS011;24559;53.590;9.764;2023-08-06T03:10:22;4.47;;;4.18;;
25333;SDS011;24559;53.590;9.764;2023-08-06T03:12:50;4.32;;;4.03;;
25333;SDS011;24559;53.590;9.764;2023-08-06T03:15:18;4.30;;;4.00;;
25333;SDS011;24559;53.590;9.764;2023-08-06T03:17:45;4.30;;;4.10;;
25333;SDS011;24559;53.590;9.764;2023-08-06T03:20:12;5.00;;;4.60;;
25333;SDS011;24559;53.590;9.764;2023-08-06T03:22:39;4.55;;;4.20;;
25333;SDS011;24559;53.590;9.764;2023-08-06T03:25:06;6.97;;;5.80;;
25333;SDS011;24559;53.590;9.764;2023-08-06T03:27:34;5.35;;;4.70;;
25333;SDS011;24559;53.590;9.764;2023-08-06T03:30:01;4.47;;;4.07;;
25333;SDS011;24559;53.590;9.764;2023-08-06T03:32:27;5.90;;;4.38;;
25333;SDS011;24559;53.590;9.764;2023-08-06T03:34:54;4.57;;;4.25;;
25333;SDS011;24559;53.590;9.764;2023-08-06T03:37:23;5.32;;;4.70;;
25333;SDS011;24559;53.590;9.764;2023-08-06T03:39:50;5.78;;;4.10;;
25333;SDS011;24559;53.590;9.764;2023-08-06T03:42:17;5.13;;;4.63;;
25333;SDS011;24559;53.590;9.764;2023-08-06T03:44:43;5.55;;;5.05;;
25333;SDS011;24559;53.590;9.764;2023-08-06T03:47:10;4.90;;;4.60;;
25333;SDS011;24559;53.590;9.764;2023-08-06T03:49:36;5.28;;;4.78;;
25333;SDS011;24559;53.590;9.764;2023-08-06T03:52:03;7.82;;;5.93;;
25333;SDS011;24559;53.590;9.764;2023-08-06T03:54:30;3.90;;;3.60;;
25333;SDS011;24559;53.590;9.764;2023-08-06T03:56:56;5.00;;;4.60;;
25333;SDS011;24559;53.590;9.764;2023-08-06T03:59:22;4.38;;;3.97;;
25333;SDS011;24559;53.590;9.764;2023-08-06T04:01:48;5.78;;;5.10;;
25333;SDS011;24559;53.590;9.764;2023-08-06T04:04:15;5.05;;;4.45;;
25333;SDS011;24559;53.590;9.764;2023-08-06T04:06:41;3.72;;;3.47;;
25333;SDS011;24559;53.590;9.764;2023-08-06T04:09:07;5.60;;;4.70;;
25333;SDS011;24559;53.590;9.764;2023-08-06T04:11:33;7.13;;;4.80;;
25333;SDS011;24559;53.590;9.764;2023-08-06T04:14:01;4.10;;;3.80;;
25333;SDS011;24559;53.590;9.764;2023-08-06T04:16:29;4.43;;;4.07;;
25333;SDS011;24559;53.590;9.764;2023-08-06T04:18:55;5.72;;;5.22;;
25333;SDS011;24559;53.590;9.764;2023-08-06T04:21:23;4.28;;;3.88;;
25333;SDS011;24559;53.590;9.764;2023-08-06T04:23:49;4.75;;;4.45;;
25333;SDS011;24559;53.590;9.764;2023-08-06T04:26:17;4.90;;;4.50;;
25333;SDS011;24559;53.590;9.764;2023-08-06T04:28:43;6.07;;;4.93;;
25333;SDS011;24559;53.590;9.764;2023-08-06T04:31:09;5.18;;;4.78;;
25333;SDS011;24559;53.590;9.764;2023-08-06T04:33:37;5.55;;;5.05;;
25333;SDS011;24559;53.590;9.764;2023-08-06T04:36:09;5.65;;;5.15;;
25333;SDS011;24559;53.590;9.764;2023-08-06T04:38:35;5.05;;;4.65;;
25333;SDS011;24559;53.590;9.764;2023-08-06T04:41:04;5.20;;;4.80;;
25333;SDS011;24559;53.590;9.764;2023-08-06T04:43:31;6.30;;;5.03;;
25333;SDS011;24559;53.590;9.764;2023-08-06T04:45:57;7.40;;;5.03;;
25333;SDS011;24559;53.590;9.764;2023-08-06T04:48:23;5.80;;;4.47;;
25333;SDS011;24559;53.590;9.764;2023-08-06T04:50:50;5.13;;;4.65;;
25333;SDS011;24559;53.590;9.764;2023-08-06T04:53:16;6.70;;;4.45;;
25333;SDS011;24559;53.590;9.764;2023-08-06T04:55:42;4.95;;;4.55;;
25333;SDS011;24559;53.590;9.764;2023-08-06T04:58:09;6.30;;;5.47;;
25333;SDS011;24559;53.590;9.764;2023-08-06T05:00:35;4.72;;;4.38;;
25333;SDS011;24559;53.590;9.764;2023-08-06T05:03:02;8.55;;;6.13;;
25333;SDS011;24559;53.590;9.764;2023-08-06T05:05:28;7.68;;;4.93;;
25333;SDS011;24559;53.590;9.764;2023-08-06T05:07:55;7.90;;;3.97;;
25333;SDS011;24559;53.590;9.764;2023-08-06T05:10:21;8.88;;;4.85;;
25333;SDS011;24559;53.590;9.764;2023-08-06T05:12:47;7.15;;;4.70;;
25333;SDS011;24559;53.590;9.764;2023-08-06T05:15:14;4.05;;;3.75;;
25333;SDS011;24559;53.590;9.764;2023-08-06T05:17:40;5.65;;;4.80;;
25333;SDS011;24559;53.590;9.764;2023-08-06T05:20:06;6.75;;;4.50;;
25333;SDS011;24559;53.590;9.764;2023-08-06T05:22:32;5.25;;;4.85;;
25333;SDS011;24559;53.590;9.764;2023-08-06T05:24:58;7.75;;;5.05;;
25333;SDS011;24559;53.590;9.764;2023-08-06T05:27:25;4.70;;;4.35;;
25333;SDS011;24559;53.590;9.764;2023-08-06T05:29:54;6.55;;;5.53;;
25333;SDS011;24559;53.590;9.764;2023-08-06T05:32:21;5.90;;;5.40;;
25333;SDS011;24559;53.590;9.764;2023-08-06T05:34:48;4.28;;;4.07;;
25333;SDS011;24559;53.590;9.764;2023-08-06T05:37:14;5.47;;;3.88;;
25333;SDS011;24559;53.590;9.764;2023-08-06T05:39:40;6.53;;;4.80;;
25333;SDS011;24559;53.590;9.764;2023-08-06T05:42:06;5.20;;;4.65;;
25333;SDS011;24559;53.590;9.764;2023-08-06T05:44:33;5.30;;;4.82;;
25333;SDS011;24559;53.590;9.764;2023-08-06T05:46:59;5.57;;;4.63;;
25333;SDS011;24559;53.590;9.764;2023-08-06T05:49:28;4.97;;;4.32;;
25333;SDS011;24559;53.590;9.764;2023-08-06T05:51:55;6.32;;;4.60;;
25333;SDS011;24559;53.590;9.764;2023-08-06T05:54:21;6.75;;;4.93;;
25333;SDS011;24559;53.590;9.764;2023-08-06T05:56:48;5.70;;;4.50;;
25333;SDS011;24559;53.590;9.764;2023-08-06T05:59:14;4.97;;;4.65;;
25333;SDS011;24559;53.590;9.764;2023-08-06T06:01:40;5.50;;;5.07;;
25333;SDS011;24559;53.590;9.764;2023-08-06T06:04:10;7.80;;;4.60;;
25333;SDS011;24559;53.590;9.764;2023-08-06T06:06:36;4.55;;;4.13;;
25333;SDS011;24559;53.590;9.764;2023-08-06T06:09:02;7.35;;;4.32;;
25333;SDS011;24559;53.590;9.764;2023-08-06T06:11:28;7.22;;;4.80;;
25333;SDS011;24559;53.590;9.764;2023-08-06T06:13:54;6.25;;;4.47;;
25333;SDS011;24559;53.590;9.764;2023-08-06T06:16:21;5.30;;;4.78;;
25333;SDS011;24559;53.590;9.764;2023-08-06T06:18:47;5.60;;;4.68;;
25333;SDS011;24559;53.590;9.764;2023-08-06T06:21:13;5.10;;;4.47;;
25333;SDS011;24559;53.590;9.764;2023-08-06T06:23:40;8.80;;;5.97;;
25333;SDS011;24559;53.590;9.764;2023-08-06T06:26:06;6.07;;;3.92;;
25333;SDS011;24559;53.590;9.764;2023-08-06T06:28:32;4.10;;;3.80;;
25333;SDS011;24559;53.590;9.764;2023-08-06T06:31:02;5.53;;;4.32;;
25333;SDS011;24559;53.590;9.764;2023-08-06T06:33:28;5.80;;;4.22;;
25333;SDS011;24559;53.590;9.764;2023-08-06T06:35:55;7.10;;;4.13;;
25333;SDS011;24559;53.590;9.764;2023-08-06T06:38:21;5.03;;;4.50;;
25333;SDS011;24559;53.590;9.764;2023-08-06T06:40:57;6.30;;;4.55;;
25333;SDS011;24559;53.590;9.764;2023-08-06T06:43:23;7.10;;;4.95;;
25333;SDS011;24559;53.590;9.764;2023-08-06T06:45:53;5.18;;;4.70;;
25333;SDS011;24559;53.590;9.764;2023-08-06T06:48:22;5.80;;;4.88;;
25333;SDS011;24559;53.590;9.764;2023-08-06T06:50:48;5.75;;;5.15;;
25333;SDS011;24559;53.590;9.764;2023-08-06T06:53:15;14.80;;;4.97;;
25333;SDS011;24559;53.590;9.764;2023-08-06T06:55:41;6.57;;;5.35;;
25333;SDS011;24559;53.590;9.764;2023-08-06T06:58:08;6.05;;;5.20;;
25333;SDS011;24559;53.590;9.764;2023-08-06T07:00:37;5.47;;;4.82;;
25333;SDS011;24559;53.590;9.764;2023-08-06T07:03:03;9.85;;;5.13;;
25333;SDS011;24559;53.590;9.764;2023-08-06T07:05:29;6.53;;;4.82;;
25333;SDS011;24559;53.590;9.764;2023-08-06T07:07:55;5.40;;;4.95;;
25333;SDS011;24559;53.590;9.764;2023-08-06T07:10:22;5.32;;;4.75;;
25333;SDS011;24559;53.590;9.764;2023-08-06T07:12:48;6.25;;;4.70;;
25333;SDS011;24559;53.590;9.764;2023-08-06T07:15:14;9.57;;;5.07;;
25333;SDS011;24559;53.590;9.764;2023-08-06T07:17:43;6.15;;;5.63;;
25333;SDS011;24559;53.590;9.764;2023-08-06T07:20:10;6.85;;;5.70;;
25333;SDS011;24559;53.590;9.764;2023-08-06T07:22:37;8.40;;;4.82;;
25333;SDS011;24559;53.590;9.764;2023-08-06T07:25:04;5.45;;;4.88;;
25333;SDS011;24559;53.590;9.764;2023-08-06T07:27:30;8.38;;;5.53;;
25333;SDS011;24559;53.590;9.764;2023-08-06T07:29:57;5.20;;;4.32;;
25333;SDS011;24559;53.590;9.764;2023-08-06T07:32:24;6.07;;;5.53;;
25333;SDS011;24559;53.590;9.764;2023-08-06T07:34:50;5.65;;;4.60;;
25333;SDS011;24559;53.590;9.764;2023-08-06T07:37:22;6.35;;;5.55;;
25333;SDS011;24559;53.590;9.764;2023-08-06T07:39:48;7.18;;;5.35;;
25333;SDS011;24559;53.590;9.764;2023-08-06T07:42:14;7.80;;;5.82;;
25333;SDS011;24559;53.590;9.764;2023-08-06T07:44:41;6.80;;;5.53;;
25333;SDS011;24559;53.590;9.764;2023-08-06T07:47:07;6.40;;;5.38;;
25333;SDS011;24559;53.590;9.764;2023-08-06T07:49:33;6.10;;;5.50;;
25333;SDS011;24559;53.590;9.764;2023-08-06T07:51:59;5.20;;;4.70;;
25333;SDS011;24559;53.590;9.764;2023-08-06T07:54:25;8.05;;;6.20;;
25333;SDS011;24559;53.590;9.764;2023-08-06T07:56:53;5.60;;;5.00;;
25333;SDS011;24559;53.590;9.764;2023-08-06T07:59:20;6.60;;;5.57;;
25333;SDS011;24559;53.590;9.764;2023-08-06T08:01:46;8.07;;;5.38;;
25333;SDS011;24559;53.590;9.764;2023-08-06T08:04:12;5.93;;;5.05;;
25333;SDS011;24559;53.590;9.764;2023-08-06T08:06:38;6.18;;;5.15;;
25333;SDS011;24559;53.590;9.764;2023-08-06T08:09:05;6.88;;;5.50;;
25333;SDS011;24559;53.590;9.764;2023-08-06T08:11:31;8.88;;;5.00;;
25333;SDS011;24559;53.590;9.764;2023-08-06T08:13:57;8.88;;;5.30;;
25333;SDS011;24559;53.590;9.764;2023-08-06T08:16:23;8.38;;;5.20;;
25333;SDS011;24559;53.590;9.764;2023-08-06T08:18:49;7.38;;;5.68;;
25333;SDS011;24559;53.590;9.764;2023-08-06T08:21:16;7.72;;;5.75;;
25333;SDS011;24559;53.590;9.764;2023-08-06T08:23:43;6.35;;;5.78;;
25333;SDS011;24559;53.590;9.764;2023-08-06T08:26:09;6.25;;;5.57;;
25333;SDS011;24559;53.590;9.764;2023-08-06T08:28:35;5.38;;;4.88;;
25333;SDS011;24559;53.590;9.764;2023-08-06T08:31:01;6.90;;;5.78;;
25333;SDS011;24559;53.590;9.764;2023-08-06T08:33:28;5.65;;;5.15;;
25333;SDS011;24559;53.590;9.764;2023-08-06T08:35:54;5.82;;;4.85;;
25333;SDS011;24559;53.590;9.764;2023-08-06T08:38:20;5.95;;;5.45;;
25333;SDS011;24559;53.590;9.764;2023-08-06T08:40:46;7.57;;;5.30;;
25333;SDS011;24559;53.590;9.764;2023-08-06T08:43:16;9.63;;;5.85;;
25333;SDS011;24559;53.590;9.764;2023-08-06T08:45:43;6.40;;;5.32;;
25333;SDS011;24559;53.590;9.764;2023-08-06T08:48:15;6.85;;;4.85;;
25333;SDS011;24559;53.590;9.764;2023-08-06T08:50:44;7.75;;;6.10;;
25333;SDS011;24559;53.590;9.764;2023-08-06T08:53:10;6.30;;;5.20;;
25333;SDS011;24559;53.590;9.764;2023-08-06T08:55:37;7.60;;;5.22;;
25333;SDS011;24559;53.590;9.764;2023-08-06T08:58:04;7.20;;;5.35;;
25333;SDS011;24559;53.590;9.764;2023-08-06T09:00:30;5.43;;;5.03;;
25333;SDS011;24559;53.590;9.764;2023-08-06T09:02:56;5.40;;;4.82;;
25333;SDS011;24559;53.590;9.764;2023-08-06T09:05:25;5.32;;;4.85;;
25333;SDS011;24559;53.590;9.764;2023-08-06T09:07:56;6.15;;;4.80;;
25333;SDS011;24559;53.590;9.764;2023-08-06T09:10:27;7.53;;;4.95;;
25333;SDS011;24559;53.590;9.764;2023-08-06T09:12:55;6.15;;;4.85;;
25333;SDS011;24559;53.590;9.764;2023-08-06T09:15:25;6.38;;;5.20;;
25333;SDS011;24559;53.590;9.764;2023-08-06T09:17:52;6.68;;;5.05;;
25333;SDS011;24559;53.590;9.764;2023-08-06T09:20:18;7.00;;;4.88;;
25333;SDS011;24559;53.590;9.764;2023-08-06T09:22:44;8.57;;;5.00;;
25333;SDS011;24559;53.590;9.764;2023-08-06T09:25:16;6.93;;;5.50;;
25333;SDS011;24559;53.590;9.764;2023-08-06T09:27:46;6.25;;;4.78;;
25333;SDS011;24559;53.590;9.764;2023-08-06T09:30:28;4.82;;;4.18;;
25333;SDS011;24559;53.590;9.764;2023-08-06T09:32:55;5.07;;;4.22;;
25333;SDS011;24559;53.590;9.764;2023-08-06T09:35:21;5.22;;;4.57;;
25333;SDS011;24559;53.590;9.764;2023-08-06T09:37:48;7.10;;;4.75;;
25333;SDS011;24559;53.590;9.764;2023-08-06T09:40:30;5.25;;;4.75;;
25333;SDS011;24559;53.590;9.764;2023-08-06T09:42:57;7.75;;;4.80;;
25333;SDS011;24559;53.590;9.764;2023-08-06T09:45:28;9.50;;;4.68;;
25333;SDS011;24559;53.590;9.764;2023-08-06T09:47:57;7.28;;;4.55;;
25333;SDS011;24559;53.590;9.764;2023-08-06T09:50:26;5.82;;;4.80;;
25333;SDS011;24559;53.590;9.764;2023-08-06T09:52:53;6.60;;;4.88;;
25333;SDS011;24559;53.590;9.764;2023-08-06T09:55:21;6.25;;;5.07;;
25333;SDS011;24559;53.590;9.764;2023-08-06T09:57:48;6.90;;;4.63;;
25333;SDS011;24559;53.590;9.764;2023-08-06T10:00:15;7.57;;;4.78;;
25333;SDS011;24559;53.590;9.764;2023-08-06T10:02:45;4.50;;;4.13;;
25333;SDS011;24559;53.590;9.764;2023-08-06T10:05:11;5.85;;;4.70;;
25333;SDS011;24559;53.590;9.764;2023-08-06T10:07:38;4.75;;;3.90;;
25333;SDS011;24559;53.590;9.764;2023-08-06T10:10:05;6.22;;;4.43;;
25333;SDS011;24559;53.590;9.764;2023-08-06T10:12:34;5.03;;;4.00;;
25333;SDS011;24559;53.590;9.764;2023-08-06T10:15:01;4.47;;;3.58;;
25333;SDS011;24559;53.590;9.764;2023-08-06T10:17:29;4.97;;;4.03;;
25333;SDS011;24559;53.590;9.764;2023-08-06T10:19:58;3.95;;;3.55;;
25333;SDS011;24559;53.590;9.764;2023-08-06T10:22:24;3.90;;;3.50;;
25333;SDS011;24559;53.590;9.764;2023-08-06T10:24:53;4.32;;;3.53;;
25333;SDS011;24559;53.590;9.764;2023-08-06T10:27:30;5.72;;;3.70;;
25333;SDS011;24559;53.590;9.764;2023-08-06T10:30:20;3.70;;;3.40;;
25333;SDS011;24559;53.590;9.764;2023-08-06T10:32:46;3.65;;;3.20;;
25333;SDS011;24559;53.590;9.764;2023-08-06T10:38:19;4.18;;;3.53;;
25333;SDS011;24559;53.590;9.764;2023-08-06T10:45:51;3.50;;;3.20;;
25333;SDS011;24559;53.590;9.764;2023-08-06T10:48:36;3.63;;;3.03;;
25333;SDS011;24559;53.590;9.764;2023-08-06T10:51:03;4.10;;;3.45;;
25333;SDS011;24559;53.590;9.764;2023-08-06T10:53:30;4.43;;;3.40;;
25333;SDS011;24559;53.590;9.764;2023-08-06T10:55:57;4.25;;;2.90;;
25333;SDS011;24559;53.590;9.764;2023-08-06T10:58:23;6.00;;;3.35;;
25333;SDS011;24559;53.590;9.764;2023-08-06T11:00:49;4.75;;;3.40;;
25333;SDS011;24559;53.590;9.764;2023-08-06T11:03:16;5.10;;;3.30;;
25333;SDS011;24559;53.590;9.764;2023-08-06T11:05:48;4.28;;;3.50;;
25333;SDS011;24559;53.590;9.764;2023-08-06T11:08:27;4.10;;;3.80;;
25333;SDS011;24559;53.590;9.764;2023-08-06T11:10:54;5.78;;;3.63;;
25333;SDS011;24559;53.590;9.764;2023-08-06T11:13:23;4.85;;;3.97;;
25333;SDS011;24559;53.590;9.764;2023-08-06T11:15:52;8.77;;;3.92;;
25333;SDS011;24559;53.590;9.764;2023-08-06T11:18:19;4.57;;;3.97;;
25333;SDS011;24559;53.590;9.764;2023-08-06T11:20:45;4.10;;;3.80;;
25333;SDS011;24559;53.590;9.764;2023-08-06T11:23:11;4.78;;;3.67;;
25333;SDS011;24559;53.590;9.764;2023-08-06T11:25:43;6.63;;;3.38;;
25333;SDS011;24559;53.590;9.764;2023-08-06T11:28:11;3.42;;;3.15;;
25333;SDS011;24559;53.590;9.764;2023-08-06T11:30:37;3.67;;;3.38;;
25333;SDS011;24559;53.590;9.764;2023-08-06T11:33:06;3.78;;;3.35;;
25333;SDS011;24559;53.590;9.764;2023-08-06T11:35:35;2.95;;;2.75;;
25333;SDS011;24559;53.590;9.764;2023-08-06T11:38:01;3.60;;;3.30;;
25333;SDS011;24559;53.590;9.764;2023-08-06T11:40:27;5.28;;;3.60;;
25333;SDS011;24559;53.590;9.764;2023-08-06T11:42:54;5.97;;;3.30;;
25333;SDS011;24559;53.590;9.764;2023-08-06T11:45:24;6.18;;;3.33;;
25333;SDS011;24559;53.590;9.764;2023-08-06T11:47:51;3.40;;;3.10;;
25333;SDS011;24559;53.590;9.764;2023-08-06T11:50:24;3.50;;;3.17;;
25333;SDS011;24559;53.590;9.764;2023-08-06T11:52:56;3.45;;;3.15;;
25333;SDS011;24559;53.590;9.764;2023-08-06T11:55:23;4.35;;;3.53;;
25333;SDS011;24559;53.590;9.764;2023-08-06T11:57:50;4.30;;;3.25;;
25333;SDS011;24559;53.590;9.764;2023-08-06T12:00:17;3.85;;;3.50;;
25333;SDS011;24559;53.590;9.764;2023-08-06T12:02:45;4.07;;;3.10;;
25333;SDS011;24559;53.590;9.764;2023-08-06T12:05:12;5.63;;;3.33;;
25333;SDS011;24559;53.590;9.764;2023-08-06T12:07:39;3.53;;;3.20;;
25333;SDS011;24559;53.590;9.764;2023-08-06T12:10:06;6.57;;;3.40;;
25333;SDS011;24559;53.590;9.764;2023-08-06T12:12:33;4.28;;;2.72;;
25333;SDS011;24559;53.590;9.764;2023-08-06T12:15:00;4.32;;;3.65;;
25333;SDS011;24559;53.590;9.764;2023-08-06T12:17:26;4.28;;;3.58;;
25333;SDS011;24559;53.590;9.764;2023-08-06T12:19:52;4.07;;;3.50;;
25333;SDS011;24559;53.590;9.764;2023-08-06T12:22:18;5.28;;;3.35;;
25333;SDS011;24559;53.590;9.764;2023-08-06T12:24:45;3.53;;;3.22;;
25333;SDS011;24559;53.590;9.764;2023-08-06T12:27:12;5.13;;;3.00;;
25333;SDS011;24559;53.590;9.764;2023-08-06T12:29:42;3.15;;;2.85;;
25333;SDS011;24559;53.590;9.764;2023-08-06T12:32:09;5.03;;;3.20;;
25333;SDS011;24559;53.590;9.764;2023-08-06T12:34:36;3.17;;;2.97;;
25333;SDS011;24559;53.590;9.764;2023-08-06T12:37:03;5.70;;;3.33;;
25333;SDS011;24559;53.590;9.764;2023-08-06T12:39:29;3.42;;;3.22;;
25333;SDS011;24559;53.590;9.764;2023-08-06T12:41:56;3.60;;;3.25;;
25333;SDS011;24559;53.590;9.764;2023-08-06T12:44:23;5.57;;;3.92;;
25333;SDS011;24559;53.590;9.764;2023-08-06T12:46:50;3.15;;;2.95;;
25333;SDS011;24559;53.590;9.764;2023-08-06T12:49:17;3.45;;;3.15;;
25333;SDS011;24559;53.590;9.764;2023-08-06T12:51:43;3.38;;;3.00;;
25333;SDS011;24559;53.590;9.764;2023-08-06T12:54:09;3.17;;;2.97;;
25333;SDS011;24559;53.590;9.764;2023-08-06T12:56:35;3.10;;;2.88;;
25333;SDS011;24559;53.590;9.764;2023-08-06T12:59:01;3.45;;;2.97;;
25333;SDS011;24559;53.590;9.764;2023-08-06T13:01:28;3.20;;;2.92;;
25333;SDS011;24559;53.590;9.764;2023-08-06T13:03:54;5.05;;;3.58;;
25333;SDS011;24559;53.590;9.764;2023-08-06T13:06:20;3.30;;;3.08;;
25333;SDS011;24559;53.590;9.764;2023-08-06T13:08:46;4.55;;;3.22;;
25333;SDS011;24559;53.590;9.764;2023-08-06T13:11:12;5.13;;;3.45;;
25333;SDS011;24559;53.590;9.764;2023-08-06T13:13:39;3.65;;;3.22;;
25333;SDS011;24559;53.590;9.764;2023-08-06T13:16:05;4.18;;;2.90;;
25333;SDS011;24559;53.590;9.764;2023-08-06T13:18:31;3.30;;;2.80;;
25333;SDS011;24559;53.590;9.764;2023-08-06T13:20:58;4.43;;;3.78;;
25333;SDS011;24559;53.590;9.764;2023-08-06T13:23:24;4.35;;;3.47;;
25333;SDS011;24559;53.590;9.764;2023-08-06T13:25:50;4.05;;;3.67;;
25333;SDS011;24559;53.590;9.764;2023-08-06T13:28:16;4.10;;;3.70;;
25333;SDS011;24559;53.590;9.764;2023-08-06T13:30:43;4.57;;;3.85;;
25333;SDS011;24559;53.590;9.764;2023-08-06T13:33:09;4.60;;;3.85;;
25333;SDS011;24559;53.590;9.764;2023-08-06T13:35:36;4.47;;;3.70;;
25333;SDS011;24559;53.590;9.764;2023-08-06T13:38:02;6.82;;;3.65;;
25333;SDS011;24559;53.590;9.764;2023-08-06T13:40:29;6.22;;;3.90;;
25333;SDS011;24559;53.590;9.764;2023-08-06T13:42:55;3.90;;;3.60;;
25333;SDS011;24559;53.590;9.764;2023-08-06T13:45:22;3.45;;;3.25;;
25333;SDS011;24559;53.590;9.764;2023-08-06T13:47:48;3.88;;;3.58;;
25333;SDS011;24559;53.590;9.764;2023-08-06T13:50:16;5.22;;;3.38;;
25333;SDS011;24559;53.590;9.764;2023-08-06T13:52:44;4.05;;;3.67;;
25333;SDS011;24559;53.590;9.764;2023-08-06T13:55:10;3.15;;;2.85;;
25333;SDS011;24559;53.590;9.764;2023-08-06T13:57:36;4.35;;;3.10;;
25333;SDS011;24559;53.590;9.764;2023-08-06T14:00:03;4.32;;;3.00;;
25333;SDS011;24559;53.590;9.764;2023-08-06T14:02:37;3.47;;;3.17;;
25333;SDS011;24559;53.590;9.764;2023-08-06T14:05:04;3.95;;;2.55;;
25333;SDS011;24559;53.590;9.764;2023-08-06T14:07:30;3.67;;;2.50;;
25333;SDS011;24559;53.590;9.764;2023-08-06T14:09:57;3.30;;;2.38;;
25333;SDS011;24559;53.590;9.764;2023-08-06T14:12:23;2.60;;;2.40;;
25333;SDS011;24559;53.590;9.764;2023-08-06T14:14:50;2.40;;;2.20;;
25333;SDS011;24559;53.590;9.764;2023-08-06T14:17:16;3.65;;;2.15;;
25333;SDS011;24559;53.590;9.764;2023-08-06T14:19:42;3.38;;;2.08;;
25333;SDS011;24559;53.590;9.764;2023-08-06T14:22:08;2.10;;;2.00;;
25333;SDS011;24559;53.590;9.764;2023-08-06T14:24:35;2.25;;;2.10;;
25333;SDS011;24559;53.590;9.764;2023-08-06T14:27:01;2.60;;;2.40;;
25333;SDS011;24559;53.590;9.764;2023-08-06T14:29:29;1.90;;;1.80;;
25333;SDS011;24559;53.590;9.764;2023-08-06T14:31:55;2.72;;;2.40;;
25333;SDS011;24559;53.590;9.764;2023-08-06T14:34:22;3.13;;;2.28;;
25333;SDS011;24559;53.590;9.764;2023-08-06T14:36:48;1.90;;;1.80;;
25333;SDS011;24559;53.590;9.764;2023-08-06T14:39:14;2.92;;;1.90;;
25333;SDS011;24559;53.590;9.764;2023-08-06T14:41:40;2.05;;;1.88;;
25333;SDS011;24559;53.590;9.764;2023-08-06T14:44:07;1.77;;;1.63;;
25333;SDS011;24559;53.590;9.764;2023-08-06T14:46:33;1.85;;;1.67;;
25333;SDS011;24559;53.590;9.764;2023-08-06T14:48:59;2.83;;;2.10;;
25333;SDS011;24559;53.590;9.764;2023-08-06T14:51:25;1.98;;;1.88;;
25333;SDS011;24559;53.590;9.764;2023-08-06T14:53:53;2.60;;;2.40;;
25333;SDS011;24559;53.590;9.764;2023-08-06T14:56:19;2.00;;;1.80;;
25333;SDS011;24559;53.590;9.764;2023-08-06T14:58:45;2.75;;;1.92;;
25333;SDS011;24559;53.590;9.764;2023-08-06T15:01:12;1.75;;;1.65;;